Time;durP1;ratioP1;P1;durP2;ratioP2;P2;SDS_P1;SDS_P2;PMS_P1;PMS_P2;Temp;Humidity;BMP_temperature;BMP_pressure;BME280_temperature;BME280_humidity;BME280_pressure;Samples;Min_cycle;Max_cycle;Signal;HPM_P1;HPM_P2
2024/01/24 00:01:52;;;;;;;21.07;14.83;;;;;;;1.42;82.60;100553.50;5111967;28;20559;-58
2024/01/24 00:04:20;;;;;;;18.47;13.47;;;;;;;1.36;83.76;100553.97;5111780;28;21205;-58
2024/01/24 00:06:48;;;;;;;18.47;13.17;;;;;;;1.48;83.45;100565.31;5112121;27;20441;-60
2024/01/24 00:09:14;;;;;;;16.87;13.17;;;;;;;1.50;84.22;100553.78;5111909;28;20444;-58
2024/01/24 00:11:41;;;;;;;16.07;13.27;;;;;;;1.57;85.22;100555.03;5111438;28;20506;-59
2024/01/24 00:14:09;;;;;;;14.63;11.33;;;;;;;1.63;86.48;100556.34;5110610;28;20448;-59
2024/01/24 00:16:35;;;;;;;13.27;11.97;;;;;;;1.69;86.77;100555.88;5112718;27;20464;-58
2024/01/24 00:19:02;;;;;;;13.00;10.30;;;;;;;1.55;90.04;100541.19;5103664;28;20448;-58
2024/01/24 00:21:29;;;;;;;14.13;11.47;;;;;;;1.80;91.92;100561.97;5110887;28;20448;-58
2024/01/24 00:23:58;;;;;;;14.23;11.17;;;;;;;1.94;91.77;100564.41;5111049;28;20444;-58
2024/01/24 00:26:25;;;;;;;14.13;12.00;;;;;;;2.08;92.67;100564.19;5110945;28;20935;-59
2024/01/24 00:28:52;;;;;;;29.67;19.33;;;;;;;2.18;92.95;100562.56;5109556;28;20433;-59
2024/01/24 00:31:18;;;;;;;11.57;9.57;;;;;;;2.32;93.00;100549.22;5110287;28;20505;-60
2024/01/24 00:33:45;;;;;;;10.90;9.43;;;;;;;2.44;92.62;100558.75;5111694;27;20506;-62
2024/01/24 00:36:12;;;;;;;9.67;8.67;;;;;;;2.55;92.49;100556.16;5110389;28;20448;-59
2024/01/24 00:38:39;;;;;;;11.13;10.03;;;;;;;2.69;91.53;100563.75;5111004;28;20501;-58
2024/01/24 00:41:07;;;;;;;12.47;10.30;;;;;;;2.82;91.54;100572.34;5110545;28;20487;-59
2024/01/24 00:43:33;;;;;;;17.40;12.33;;;;;;;2.95;91.69;100565.19;5111700;27;20452;-59
2024/01/24 00:46:00;;;;;;;14.47;11.87;;;;;;;3.08;90.63;100568.50;5114471;27;20456;-58
2024/01/24 00:48:27;;;;;;;28.33;14.83;;;;;;;3.18;90.75;100576.47;5110513;28;20939;-59
2024/01/24 00:50:54;;;;;;;19.60;13.30;;;;;;;3.26;90.14;100568.78;5110135;28;20493;-59
2024/01/24 00:53:21;;;;;;;11.80;10.53;;;;;;;3.31;89.61;100562.22;5110087;28;20483;-59
2024/01/24 00:55:48;;;;;;;8.87;8.00;;;;;;;3.37;89.60;100556.47;5109330;28;20452;-62
2024/01/24 00:58:16;;;;;;;8.07;7.37;;;;;;;3.48;88.81;100559.06;5110398;28;20513;-59
2024/01/24 01:00:43;;;;;;;7.97;7.27;;;;;;;3.55;88.41;100560.22;5102987;28;20544;-60
2024/01/24 01:03:10;;;;;;;11.70;8.00;;;;;;;3.67;87.92;100564.47;5110146;28;20255;-59
2024/01/24 01:05:37;;;;;;;7.73;6.97;;;;;;;3.75;87.45;100556.78;5111914;27;20657;-59
2024/01/24 01:08:05;;;;;;;7.60;6.87;;;;;;;3.79;86.61;100563.47;5109778;28;20685;-57
2024/01/24 01:10:32;;;;;;;7.80;6.77;;;;;;;3.82;86.58;100563.22;5117322;27;20725;-58
2024/01/24 01:12:58;;;;;;;7.87;7.17;;;;;;;3.91;86.26;100554.56;5110392;28;20448;-57
2024/01/24 01:15:26;;;;;;;7.20;6.33;;;;;;;3.95;85.83;100557.75;5110042;28;20244;-59
2024/01/24 01:17:54;;;;;;;8.37;6.40;;;;;;;4.02;85.33;100562.41;5109743;28;20263;-59
2024/01/24 01:20:21;;;;;;;6.63;6.13;;;;;;;3.98;84.61;100568.88;5110287;27;20697;-59
2024/01/24 01:22:48;;;;;;;8.10;7.33;;;;;;;3.96;84.56;100570.78;5110284;28;20214;-58
2024/01/24 01:25:15;;;;;;;8.43;7.63;;;;;;;3.95;84.82;100563.84;5110486;28;20259;-59
2024/01/24 01:27:41;;;;;;;6.97;6.37;;;;;;;4.03;84.46;100563.22;5110886;27;20267;-58
2024/01/24 01:30:09;;;;;;;8.50;6.87;;;;;;;4.08;84.27;100564.50;5111074;27;20572;-59
2024/01/24 01:32:38;;;;;;;9.37;8.47;;;;;;;4.15;83.38;100555.13;5109988;27;20201;-59
2024/01/24 01:35:06;;;;;;;8.67;7.23;;;;;;;4.18;82.98;100568.03;5109022;27;20736;-62
2024/01/24 01:37:33;;;;;;;9.90;7.43;;;;;;;4.15;82.83;100565.66;5109355;28;20259;-58
2024/01/24 01:39:59;;;;;;;9.77;6.10;;;;;;;4.21;83.08;100570.38;5109407;28;20701;-58
2024/01/24 01:42:26;;;;;;;12.50;7.73;;;;;;;4.22;82.50;100565.97;5112471;27;20194;-59
2024/01/24 01:44:53;;;;;;;9.10;7.70;;;;;;;4.21;83.02;100565.13;5109752;28;20187;-59
2024/01/24 01:47:21;;;;;;;6.37;5.90;;;;;;;4.22;83.10;100566.81;5110057;27;20191;-59
2024/01/24 01:49:49;;;;;;;6.73;5.77;;;;;;;4.28;82.83;100574.16;5109651;28;20194;-60
2024/01/24 01:52:16;;;;;;;6.70;5.27;;;;;;;4.32;82.60;100564.22;5116325;27;20186;-59
2024/01/24 01:54:44;;;;;;;5.77;5.27;;;;;;;4.27;82.80;100567.25;5109416;28;20251;-59
2024/01/24 01:57:12;;;;;;;6.40;5.80;;;;;;;4.37;82.85;100559.41;5107989;28;20201;-60
2024/01/24 01:59:40;;;;;;;11.73;7.47;;;;;;;4.32;82.54;100561.59;5108957;28;20194;-59
2024/01/24 02:02:07;;;;;;;7.30;6.60;;;;;;;4.26;83.16;100562.13;5101426;28;20757;-58
2024/01/24 02:04:34;;;;;;;9.80;7.70;;;;;;;4.25;82.58;100566.53;5110313;27;20214;-59
2024/01/24 02:07:02;;;;;;;7.03;6.40;;;;;;;4.28;82.62;100558.41;5108826;28;20194;-57
2024/01/24 02:09:29;;;;;;;7.77;7.27;;;;;;;4.29;82.07;100560.06;5109038;28;20194;-58
2024/01/24 02:11:56;;;;;;;9.10;8.33;;;;;;;4.21;83.24;100559.88;5109707;28;20247;-57
2024/01/24 02:14:23;;;;;;;11.80;9.70;;;;;;;4.14;83.18;100557.91;5109202;28;20746;-60
2024/01/24 02:16:49;;;;;;;11.70;9.50;;;;;;;4.12;83.15;100563.28;5108353;28;20198;-60
2024/01/24 02:19:16;;;;;;;11.53;9.87;;;;;;;4.12;83.81;100552.75;5113519;28;20238;-59
2024/01/24 02:21:43;;;;;;;7.57;6.97;;;;;;;4.13;83.48;100557.03;5109661;28;20218;-58
2024/01/24 02:24:12;;;;;;;9.53;7.17;;;;;;;4.15;84.28;100562.19;5109411;28;20199;-59
2024/01/24 02:26:39;;;;;;;6.83;6.23;;;;;;;4.10;84.24;100559.13;5109498;28;20194;-58
2024/01/24 02:29:06;;;;;;;6.90;6.20;;;;;;;4.13;84.88;100551.78;5112917;28;20721;-58
2024/01/24 02:31:32;;;;;;;6.80;6.30;;;;;;;4.12;84.56;100555.38;5109940;28;20194;-59
2024/01/24 02:33:59;;;;;;;6.77;6.27;;;;;;;4.14;84.33;100556.09;5116701;28;20220;-58
2024/01/24 02:36:26;;;;;;;6.77;5.70;;;;;;;4.09;85.02;100560.91;5130858;28;20440;-58
2024/01/24 02:38:52;;;;;;;6.03;5.57;;;;;;;4.14;85.06;100563.16;5115656;28;20271;-58
2024/01/24 02:41:20;;;;;;;6.53;6.03;;;;;;;4.14;85.11;100548.22;5110590;28;20222;-58
2024/01/24 02:43:47;;;;;;;7.57;5.97;;;;;;;4.16;84.74;100551.53;5110972;28;20428;-60
2024/01/24 02:46:14;;;;;;;5.43;5.03;;;;;;;4.20;85.00;100552.94;5110951;28;20194;-59
2024/01/24 02:48:41;;;;;;;5.63;4.97;;;;;;;4.23;84.73;100543.97;5110092;28;21004;-59
2024/01/24 02:51:07;;;;;;;5.57;5.27;;;;;;;4.31;84.32;100544.16;5110719;28;20504;-59
2024/01/24 02:53:34;;;;;;;4.83;4.43;;;;;;;4.36;83.72;100553.31;5125386;27;20503;-59
2024/01/24 02:56:01;;;;;;;6.77;6.13;;;;;;;4.39;83.72;100552.22;5135375;27;20186;-58
2024/01/24 02:58:29;;;;;;;5.17;4.77;;;;;;;4.32;83.21;100559.81;5124782;27;20248;-58
2024/01/24 03:00:55;;;;;;;5.40;4.90;;;;;;;4.34;83.65;100552.59;5115165;28;20570;-58
2024/01/24 03:03:22;;;;;;;5.87;5.30;;;;;;;4.33;83.00;100547.50;5115096;28;20193;-58
2024/01/24 03:05:49;;;;;;;5.90;5.30;;;;;;;4.38;83.07;100566.34;5115074;28;20951;-58
2024/01/24 03:08:15;;;;;;;5.40;5.00;;;;;;;4.41;82.94;100551.13;5115996;27;20187;-59
2024/01/24 03:10:42;;;;;;;5.60;5.10;;;;;;;4.35;82.61;100556.91;5114714;27;20581;-58
2024/01/24 03:13:09;;;;;;;5.73;5.33;;;;;;;4.35;82.72;100546.41;5113900;28;20225;-58
2024/01/24 03:15:37;;;;;;;5.07;4.57;;;;;;;4.34;83.01;100549.97;5114246;28;20657;-59
2024/01/24 03:18:04;;;;;;;5.40;4.90;;;;;;;4.30;82.71;100556.44;5119597;27;20189;-58
2024/01/24 03:20:31;;;;;;;5.13;4.73;;;;;;;4.28;83.04;100561.03;5134815;27;20253;-59
2024/01/24 03:22:58;;;;;;;7.53;6.83;;;;;;;4.28;83.20;100562.81;5123862;27;20766;-58
2024/01/24 03:25:24;;;;;;;16.40;10.17;;;;;;;4.33;83.13;100558.81;5115169;28;20451;-58
2024/01/24 03:27:51;;;;;;;14.97;9.57;;;;;;;4.28;83.54;100566.28;5117405;27;20251;-59
2024/01/24 03:30:18;;;;;;;7.17;6.50;;;;;;;4.28;83.69;100566.28;5134657;27;20194;-58
2024/01/24 03:32:46;;;;;;;10.47;8.27;;;;;;;4.33;83.69;100569.34;5134173;27;20266;-59
2024/01/24 03:35:13;;;;;;;6.47;5.83;;;;;;;4.40;83.16;100562.59;5134815;27;20431;-58
2024/01/24 03:37:39;;;;;;;6.47;6.03;;;;;;;4.44;82.54;100568.44;5130509;27;20243;-59
2024/01/24 03:40:07;;;;;;;6.97;6.37;;;;;;;4.41;82.36;100572.16;5135200;27;20226;-58
2024/01/24 03:42:34;;;;;;;6.07;5.57;;;;;;;4.55;82.06;100568.34;5133042;27;20189;-60
2024/01/24 03:45:01;;;;;;;6.53;5.80;;;;;;;4.52;81.69;100579.97;5135007;27;20257;-59
2024/01/24 03:47:27;;;;;;;6.40;5.90;;;;;;;4.60;81.72;100577.53;5134708;27;20684;-58
2024/01/24 03:49:55;;;;;;;6.77;5.70;;;;;;;4.56;81.57;100573.50;5134647;27;20246;-58
2024/01/24 03:52:22;;;;;;;6.53;5.63;;;;;;;4.53;81.66;100581.63;5125289;27;20675;-58
2024/01/24 03:54:49;;;;;;;6.07;5.67;;;;;;;4.56;81.49;100570.00;5113946;28;20256;-59
2024/01/24 03:57:16;;;;;;;11.27;10.03;;;;;;;4.55;81.49;100573.63;5113262;28;20267;-59
2024/01/24 03:59:42;;;;;;;22.40;16.20;;;;;;;4.51;81.53;100578.31;5113505;28;20195;-59
2024/01/24 04:02:09;;;;;;;10.63;9.53;;;;;;;4.42;81.54;100571.19;5120133;27;20708;-58
2024/01/24 04:04:36;;;;;;;6.43;6.03;;;;;;;4.49;81.76;100569.72;5132825;27;20242;-58
2024/01/24 04:07:04;;;;;;;5.90;5.33;;;;;;;4.39;81.95;100579.38;5134562;27;20190;-58
2024/01/24 04:09:31;;;;;;;7.23;6.73;;;;;;;4.53;81.85;100584.25;5134392;27;20193;-58
2024/01/24 04:11:57;;;;;;;7.00;6.40;;;;;;;4.44;81.39;100589.47;5129750;27;20186;-58
2024/01/24 04:14:24;;;;;;;9.07;8.47;;;;;;;4.48;81.86;100594.34;5113305;28;20690;-58
2024/01/24 04:16:51;;;;;;;5.57;5.27;;;;;;;4.53;81.23;100591.31;5114232;28;20194;-58
2024/01/24 04:19:17;;;;;;;6.77;5.63;;;;;;;4.52;81.48;100595.75;5113788;28;20250;-59
2024/01/24 04:21:44;;;;;;;6.07;5.10;;;;;;;4.53;81.13;100601.84;5116281;27;20225;-58
2024/01/24 04:24:12;;;;;;;5.37;4.87;;;;;;;4.55;81.06;100602.56;5133396;27;20721;-59
2024/01/24 04:26:40;;;;;;;7.67;5.23;;;;;;;4.50;81.08;100602.94;5133835;27;20239;-59
2024/01/24 04:29:07;;;;;;;8.13;6.83;;;;;;;4.53;81.39;100612.38;5133872;27;20251;-59
2024/01/24 04:31:33;;;;;;;5.80;5.30;;;;;;;4.53;80.24;100615.84;5133179;27;20246;-58
2024/01/24 04:34:00;;;;;;;5.43;5.00;;;;;;;4.62;80.60;100612.41;5113708;28;20194;-58
2024/01/24 04:36:27;;;;;;;5.83;5.10;;;;;;;4.69;80.22;100613.56;5113873;28;20191;-58
2024/01/24 04:38:53;;;;;;;5.27;4.87;;;;;;;4.67;79.96;100620.78;5113626;28;20191;-59
2024/01/24 04:41:21;;;;;;;8.03;7.27;;;;;;;4.67;80.00;100620.78;5133718;27;20225;-58
2024/01/24 04:43:48;;;;;;;10.30;8.50;;;;;;;4.68;79.88;100614.53;5133705;27;20247;-58
2024/01/24 04:46:15;;;;;;;9.10;7.50;;;;;;;4.62;80.03;100607.16;5134169;27;20194;-59
2024/01/24 04:48:42;;;;;;;7.57;6.70;;;;;;;4.61;79.99;100616.03;5120542;27;20259;-58
2024/01/24 04:51:10;;;;;;;8.27;7.47;;;;;;;4.68;80.08;100622.44;5113578;28;20651;-62
2024/01/24 04:53:37;;;;;;;11.77;5.93;;;;;;;4.67;79.64;100615.50;5113782;28;20251;-58
2024/01/24 04:56:04;;;;;;;7.03;6.33;;;;;;;4.70;79.84;100623.13;5112283;28;20250;-58
2024/01/24 04:58:32;;;;;;;6.60;6.20;;;;;;;4.63;79.76;100627.25;5113019;28;20194;-58
2024/01/24 05:01:00;;;;;;;6.60;6.03;;;;;;;4.55;79.98;100627.09;5112877;28;20349;-58
2024/01/24 05:03:27;;;;;;;5.73;5.27;;;;;;;4.60;79.99;100637.19;5112964;28;20202;-58
2024/01/24 05:05:53;;;;;;;13.23;9.63;;;;;;;4.57;80.06;100635.66;5112853;28;20243;-58
2024/01/24 05:08:20;;;;;;;7.00;6.47;;;;;;;4.46;80.13;100622.56;5112696;28;20240;-59
2024/01/24 05:10:47;;;;;;;6.80;6.20;;;;;;;4.47;80.73;100628.69;5112521;28;20259;-58
2024/01/24 05:13:13;;;;;;;9.17;8.27;;;;;;;4.50;80.53;100623.97;5112486;28;20239;-59
2024/01/24 05:15:41;;;;;;;8.27;7.37;;;;;;;4.40;81.36;100625.75;5112499;28;20198;-58
2024/01/24 05:18:08;;;;;;;6.40;5.83;;;;;;;4.39;80.85;100634.59;5112840;28;20194;-58
2024/01/24 05:20:35;;;;;;;8.53;7.57;;;;;;;4.37;81.52;100633.06;5112232;28;20617;-58
2024/01/24 05:23:03;;;;;;;6.17;5.67;;;;;;;4.34;81.32;100642.00;5112857;28;20198;-58
2024/01/24 05:25:30;;;;;;;6.10;5.60;;;;;;;4.40;81.40;100633.63;5112265;28;20448;-58
2024/01/24 05:27:57;;;;;;;5.80;5.33;;;;;;;4.39;81.28;100637.22;5111917;28;20186;-57
2024/01/24 05:30:23;;;;;;;6.60;5.90;;;;;;;4.36;81.40;100637.47;5111376;28;20632;-58
2024/01/24 05:32:52;;;;;;;7.93;7.13;;;;;;;4.37;81.09;100638.31;5112140;27;20320;-58
2024/01/24 05:35:20;;;;;;;17.73;12.13;;;;;;;4.41;80.86;100647.63;5101100;28;20569;-58
2024/01/24 05:37:47;;;;;;;10.00;7.90;;;;;;;4.35;81.11;100650.75;5105919;28;20278;-58
2024/01/24 05:40:14;;;;;;;7.53;6.10;;;;;;;4.43;81.01;100651.78;5110853;28;20265;-59
2024/01/24 05:42:41;;;;;;;6.30;5.70;;;;;;;4.56;80.21;100648.94;5111024;27;20218;-57
2024/01/24 05:45:08;;;;;;;6.70;6.10;;;;;;;4.51;79.53;100657.25;5112123;28;20190;-57
2024/01/24 05:47:35;;;;;;;8.87;6.57;;;;;;;4.49;79.71;100646.00;5112130;28;20754;-57
2024/01/24 05:50:03;;;;;;;8.47;7.23;;;;;;;4.39;79.72;100641.63;5120819;27;20251;-59
2024/01/24 05:52:30;;;;;;;6.50;6.00;;;;;;;4.45;79.67;100651.66;5110318;28;20195;-62
2024/01/24 05:54:55;;;;;;;11.03;6.37;;;;;;;4.50;79.26;100652.91;5110955;28;20578;-59
2024/01/24 05:57:23;;;;;;;8.03;6.43;;;;;;;4.56;79.06;100656.84;5111531;28;20191;-60
2024/01/24 05:59:49;;;;;;;5.77;5.27;;;;;;;4.57;78.97;100656.72;5110996;27;20194;-60
2024/01/24 06:02:16;;;;;;;5.23;4.73;;;;;;;4.57;79.03;100655.88;5109793;28;20225;-59
2024/01/24 06:04:43;;;;;;;9.60;5.97;;;;;;;4.61;78.28;100668.66;5109798;28;20194;-59
2024/01/24 06:07:13;;;;;;;6.70;6.07;;;;;;;4.57;78.52;100659.34;5111867;28;20195;-59
2024/01/24 06:09:40;;;;;;;5.50;5.10;;;;;;;4.60;78.42;100666.97;5111908;28;20240;-59
2024/01/24 06:12:07;;;;;;;11.03;8.30;;;;;;;4.65;78.29;100662.16;5125650;27;20202;-58
2024/01/24 06:14:34;;;;;;;7.23;6.57;;;;;;;4.66;77.94;100669.09;5106785;27;20369;-64
2024/01/24 06:17:01;;;;;;;6.53;5.93;;;;;;;4.69;77.67;100666.19;5106242;28;20622;-63
2024/01/24 06:19:28;;;;;;;7.50;6.73;;;;;;;4.82;77.41;100671.28;5110295;28;20192;-61
2024/01/24 06:21:55;;;;;;;7.23;6.63;;;;;;;4.95;76.45;100677.97;5108325;28;20275;-66
2024/01/24 06:24:23;;;;;;;13.67;9.37;;;;;;;5.07;75.83;100682.16;5108509;28;20551;-62
2024/01/24 06:26:50;;;;;;;13.97;11.20;;;;;;;5.24;75.92;100683.38;5109402;28;20251;-63
2024/01/24 06:29:19;;;;;;;12.17;9.60;;;;;;;5.21;75.74;100681.84;5114544;27;20186;-65
2024/01/24 06:31:46;;;;;;;6.97;6.27;;;;;;;5.43;74.72;100694.78;5094174;28;20230;-63
2024/01/24 06:34:13;;;;;;;7.93;5.73;;;;;;;5.64;73.97;100713.19;5099571;28;20222;-63
2024/01/24 06:36:40;;;;;;;5.70;5.20;;;;;;;5.73;73.34;100702.63;5114285;28;20194;-62
2024/01/24 06:39:07;;;;;;;5.90;5.07;;;;;;;5.90;72.66;100702.97;5114369;28;20250;-61
2024/01/24 06:41:35;;;;;;;6.10;5.70;;;;;;;5.98;72.05;100695.22;5115336;27;20223;-62
2024/01/24 06:44:05;;;;;;;8.10;6.47;;;;;;;6.03;72.36;100698.25;5114282;28;20186;-61
2024/01/24 06:46:32;;;;;;;12.67;10.03;;;;;;;6.26;71.70;100694.38;5115016;28;20190;-61
2024/01/24 06:48:59;;;;;;;8.27;7.57;;;;;;;6.35;71.19;100699.66;5114539;28;20637;-61
2024/01/24 06:51:26;;;;;;;6.23;5.83;;;;;;;6.57;70.14;100698.53;5115136;28;20205;-61
2024/01/24 06:53:53;;;;;;;6.90;6.30;;;;;;;6.65;70.59;100696.03;5114493;28;20293;-61
2024/01/24 06:56:22;;;;;;;11.63;8.13;;;;;;;6.80;69.69;100689.31;5113817;28;20582;-60
2024/01/24 06:58:50;;;;;;;5.40;5.00;;;;;;;6.81;68.73;100685.72;5115407;28;20761;-61
2024/01/24 07:01:17;;;;;;;6.80;6.20;;;;;;;6.93;68.46;100690.66;5113763;27;20198;-61
2024/01/24 07:03:43;;;;;;;10.07;8.00;;;;;;;6.97;67.75;100696.47;5114091;28;20197;-61
2024/01/24 07:06:10;;;;;;;8.27;7.47;;;;;;;7.15;67.20;100705.34;5110581;27;20599;-64
2024/01/24 07:08:39;;;;;;;12.83;9.70;;;;;;;7.32;67.39;100704.56;5119226;27;20202;-61
2024/01/24 07:11:06;;;;;;;7.40;6.40;;;;;;;7.45;67.03;100707.72;5117938;27;20188;-63
2024/01/24 07:13:33;;;;;;;8.70;7.10;;;;;;;7.51;66.57;100707.13;5118793;27;20225;-63
2024/01/24 07:16:04;;;;;;;6.47;5.97;;;;;;;7.63;65.31;100714.72;5117335;27;20634;-63
2024/01/24 07:18:31;;;;;;;7.30;5.60;;;;;;;7.74;65.48;100719.81;5116863;27;20270;-67
2024/01/24 07:20:58;;;;;;;7.10;6.40;;;;;;;8.07;65.00;100720.97;5116282;27;20195;-64
2024/01/24 07:23:24;;;;;;;8.80;7.50;;;;;;;8.20;64.04;100727.56;5116669;27;20696;-62
2024/01/24 07:25:51;;;;;;;8.97;6.73;;;;;;;8.32;63.10;100728.19;5114921;27;20757;-61
2024/01/24 07:28:18;;;;;;;28.13;16.00;;;;;;;8.39;63.43;100716.88;5117250;27;20271;-62
2024/01/24 07:30:45;;;;;;;55.93;21.97;;;;;;;8.46;63.14;100722.38;5112693;28;20226;-61
2024/01/24 07:33:14;;;;;;;6.13;5.50;;;;;;;8.61;63.87;100726.13;5115038;28;20313;-66
2024/01/24 07:35:41;;;;;;;6.93;6.20;;;;;;;8.58;61.31;100726.47;5113799;27;20194;-61
2024/01/24 07:38:07;;;;;;;7.07;6.47;;;;;;;8.59;61.54;100738.72;5113623;28;20285;-61
2024/01/24 07:40:34;;;;;;;7.17;6.47;;;;;;;8.68;61.40;100748.38;5116599;27;20275;-62
2024/01/24 07:43:01;;;;;;;9.43;6.73;;;;;;;8.79;61.40;100751.59;5131827;27;20217;-59
2024/01/24 07:45:28;;;;;;;7.60;6.73;;;;;;;8.82;60.19;100751.31;5125178;27;20190;-61
2024/01/24 07:47:55;;;;;;;5.70;5.20;;;;;;;8.85;59.91;100745.72;5123329;27;20685;-62
2024/01/24 07:50:23;;;;;;;10.20;8.83;;;;;;;8.87;60.04;100745.56;5114858;27;20194;-64
2024/01/24 07:52:51;;;;;;;7.83;7.13;;;;;;;8.80;60.35;100747.16;5114107;27;20255;-61
2024/01/24 07:55:17;;;;;;;11.07;6.33;;;;;;;8.82;60.31;100734.59;5115128;27;20198;-61
2024/01/24 07:57:44;;;;;;;5.53;5.13;;;;;;;8.86;60.35;100728.81;5114775;27;20255;-61
2024/01/24 08:00:16;;;;;;;6.53;6.03;;;;;;;8.91;60.37;100728.38;5115059;27;20187;-62
2024/01/24 08:02:44;;;;;;;7.73;6.03;;;;;;;9.06;60.44;100732.09;5132887;27;20202;-62
2024/01/24 08:05:12;;;;;;;8.30;7.47;;;;;;;9.30;59.86;100730.44;5122344;27;20228;-61
2024/01/24 08:07:41;;;;;;;5.40;4.90;;;;;;;9.33;58.79;100727.47;5117984;27;20186;-61
2024/01/24 08:10:10;;;;;;;7.40;5.37;;;;;;;9.53;61.90;100726.25;5122480;27;20186;-60
2024/01/24 08:12:38;;;;;;;8.13;5.60;;;;;;;9.46;58.19;100740.28;5111012;28;20278;-61
2024/01/24 08:15:06;;;;;;;6.03;5.50;;;;;;;9.71;57.76;100750.00;5110801;27;20194;-61
2024/01/24 08:17:33;;;;;;;5.77;5.30;;;;;;;9.80;57.17;100743.75;5112986;27;20608;-62
2024/01/24 08:19:59;;;;;;;6.70;6.20;;;;;;;9.78;57.09;100740.41;5112993;28;20646;-61
2024/01/24 08:22:29;;;;;;;6.13;5.23;;;;;;;9.89;56.83;100745.44;5112808;27;20218;-62
2024/01/24 08:24:57;;;;;;;5.37;4.93;;;;;;;10.04;55.65;100744.66;5115373;27;20195;-60
2024/01/24 08:27:24;;;;;;;5.40;4.97;;;;;;;9.98;55.75;100744.47;5113498;27;20216;-61
2024/01/24 08:29:50;;;;;;;6.53;5.37;;;;;;;10.01;55.37;100746.81;5119286;27;20247;-60
2024/01/24 08:32:17;;;;;;;6.13;5.63;;;;;;;10.06;55.75;100758.59;5113280;28;20275;-61
2024/01/24 08:34:44;;;;;;;7.57;6.43;;;;;;;9.87;56.25;100756.22;5113064;28;20191;-60
2024/01/24 08:37:12;;;;;;;6.17;5.47;;;;;;;9.96;55.60;100747.28;5113527;28;20191;-61
2024/01/24 08:39:40;;;;;;;6.33;5.77;;;;;;;9.80;55.11;100751.72;5130066;27;20882;-61
2024/01/24 08:42:08;;;;;;;6.37;5.77;;;;;;;9.95;55.28;100764.22;5130195;27;20198;-61
2024/01/24 08:44:35;;;;;;;6.17;5.57;;;;;;;10.11;55.07;100753.66;5132035;27;20243;-61
2024/01/24 08:47:02;;;;;;;12.50;6.00;;;;;;;10.13;55.15;100756.16;5113220;28;20199;-61
2024/01/24 08:49:28;;;;;;;7.27;6.53;;;;;;;10.16;55.52;100742.53;5113254;28;20194;-61
2024/01/24 08:51:56;;;;;;;7.33;6.63;;;;;;;10.15;55.22;100744.38;5114703;27;20197;-67
2024/01/24 08:54:23;;;;;;;6.20;5.70;;;;;;;10.15;56.63;100743.53;5110709;27;20206;-61
2024/01/24 08:56:50;;;;;;;7.32;5.10;;;;;;;10.01;56.14;100749.47;5113245;28;20442;-63
2024/01/24 08:59:18;;;;;;;5.53;5.03;;;;;;;10.12;56.33;100746.50;5113342;28;20206;-61
2024/01/24 09:01:46;;;;;;;9.20;8.40;;;;;;;10.34;55.01;100751.22;5122212;27;20195;-64
2024/01/24 09:04:14;;;;;;;6.10;5.50;;;;;;;10.41;53.95;100760.19;5124048;27;20200;-61
2024/01/24 09:06:42;;;;;;;6.63;5.93;;;;;;;10.39;54.75;100751.56;5116139;27;20206;-61
2024/01/24 09:09:13;;;;;;;10.97;5.47;;;;;;;10.41;54.23;100753.06;5123248;27;20185;-61
2024/01/24 09:11:40;;;;;;;8.47;6.87;;;;;;;10.47;54.79;100748.91;5115695;27;20240;-59
2024/01/24 09:14:07;;;;;;;6.20;5.57;;;;;;;10.50;54.28;100748.59;5112553;28;20187;-60
2024/01/24 09:16:35;;;;;;;11.07;6.87;;;;;;;10.50;53.65;100732.66;5126047;27;20246;-61
2024/01/24 09:19:02;;;;;;;9.77;5.73;;;;;;;10.59;54.30;100732.47;5129943;27;20199;-60
2024/01/24 09:21:29;;;;;;;8.97;6.00;;;;;;;10.92;53.46;100733.28;5114232;27;20245;-60
2024/01/24 09:23:56;;;;;;;7.53;6.73;;;;;;;11.00;53.03;100726.13;5112229;28;20227;-59
2024/01/24 09:26:22;;;;;;;10.67;7.93;;;;;;;10.77;53.45;100724.34;5112100;28;20197;-59
2024/01/24 09:28:49;;;;;;;7.17;6.60;;;;;;;10.62;53.62;100720.69;5114728;27;20191;-61
2024/01/24 09:31:16;;;;;;;9.93;6.70;;;;;;;10.40;54.75;100716.88;5112011;27;20696;-61
2024/01/24 09:33:44;;;;;;;7.00;6.30;;;;;;;10.51;54.65;100721.84;5096350;27;20196;-61
2024/01/24 09:36:10;;;;;;;7.73;5.83;;;;;;;10.46;54.29;100720.69;5114567;27;20187;-63
2024/01/24 09:38:37;;;;;;;7.63;6.83;;;;;;;10.62;54.70;100715.38;5123865;27;20192;-60
2024/01/24 09:41:14;;;;;;;6.37;5.93;;;;;;;10.51;54.88;100713.88;5112014;27;20219;-60
2024/01/24 09:43:42;;;;;;;8.17;6.27;;;;;;;10.42;54.25;100711.41;5112445;28;20202;-60
2024/01/24 09:46:13;;;;;;;6.07;5.33;;;;;;;10.19;55.51;100715.69;5112383;28;20202;-61
2024/01/24 09:48:41;;;;;;;91.57;8.80;;;;;;;10.30;55.20;100707.41;5112826;28;20650;-60
2024/01/24 09:51:10;;;;;;;6.23;5.33;;;;;;;10.25;55.14;100697.25;5112306;28;20251;-61
2024/01/24 09:53:39;;;;;;;6.60;6.10;;;;;;;10.45;55.46;100713.69;5111920;28;20198;-59
2024/01/24 09:56:07;;;;;;;6.73;6.13;;;;;;;10.37;55.56;100698.59;5112032;27;20252;-59
2024/01/24 09:58:34;;;;;;;10.53;5.73;;;;;;;10.52;54.61;100707.56;5112932;27;20195;-59
2024/01/24 10:01:03;;;;;;;7.10;6.50;;;;;;;10.64;54.87;100708.06;5113101;28;20251;-59
2024/01/24 10:03:31;;;;;;;7.97;5.20;;;;;;;10.52;54.13;100686.31;5110365;28;20218;-59
2024/01/24 10:05:59;;;;;;;8.33;6.37;;;;;;;10.58;54.84;100693.63;5111282;28;20202;-60
2024/01/24 10:08:28;;;;;;;6.27;5.67;;;;;;;10.59;54.23;100679.31;5111932;28;20253;-59
2024/01/24 10:10:55;;;;;;;6.83;5.93;;;;;;;10.61;54.19;100679.16;5115130;28;20195;-59
2024/01/24 10:13:21;;;;;;;7.10;5.40;;;;;;;10.68;54.62;100674.84;5111724;28;20203;-60
2024/01/24 10:15:48;;;;;;;5.87;5.37;;;;;;;10.72;54.58;100668.19;5111927;28;20195;-60
2024/01/24 10:18:15;;;;;;;7.30;6.33;;;;;;;10.45;55.00;100665.88;5111702;28;20626;-60
2024/01/24 10:20:42;;;;;;;9.17;5.77;;;;;;;10.52;55.42;100667.72;5115762;28;20187;-60
2024/01/24 10:23:10;;;;;;;8.60;6.17;;;;;;;10.82;55.16;100663.53;5123181;28;20300;-61
2024/01/24 10:25:41;;;;;;;7.07;6.03;;;;;;;10.80;54.46;100657.56;5128197;28;20196;-61
2024/01/24 10:28:13;;;;;;;9.30;5.33;;;;;;;10.53;54.82;100649.94;5111375;28;20187;-60
2024/01/24 10:30:41;;;;;;;4.90;4.60;;;;;;;10.44;54.43;100635.00;5111342;28;20594;-60
2024/01/24 10:33:11;;;;;;;5.73;5.20;;;;;;;10.35;54.92;100644.00;5119551;28;20190;-60
2024/01/24 10:35:38;;;;;;;6.03;5.43;;;;;;;10.53;54.94;100634.00;5124452;28;20207;-60
2024/01/24 10:38:06;;;;;;;6.30;5.33;;;;;;;10.37;54.01;100639.31;5114428;28;20554;-62
2024/01/24 10:40:33;;;;;;;6.07;5.57;;;;;;;10.47;54.59;100642.66;5116977;28;20661;-61
2024/01/24 10:43:09;;;;;;;5.47;5.00;;;;;;;10.31;54.59;100637.34;5126635;28;20238;-62
2024/01/24 10:45:37;;;;;;;6.13;5.37;;;;;;;10.45;54.52;100618.06;5126224;28;20654;-62
2024/01/24 10:48:06;;;;;;;8.70;5.57;;;;;;;10.64;54.70;100623.88;5109171;28;20648;-60
2024/01/24 10:50:33;;;;;;;6.03;5.53;;;;;;;10.84;53.58;100629.66;5108658;28;20255;-61
2024/01/24 10:53:02;;;;;;;8.20;5.23;;;;;;;10.81;53.00;100627.31;5108009;28;20248;-62
2024/01/24 10:55:30;;;;;;;6.10;5.50;;;;;;;11.19;53.68;100620.38;5108132;28;20744;-61
2024/01/24 10:57:57;;;;;;;7.63;5.90;;;;;;;11.41;52.80;100603.66;5109213;28;20281;-60
2024/01/24 11:00:28;;;;;;;5.00;4.60;;;;;;;11.50;51.27;100611.44;5108972;28;20247;-60
2024/01/24 11:02:55;;;;;;;4.30;4.00;;;;;;;11.48;49.84;100621.44;5089103;28;20210;-60
2024/01/24 11:05:28;;;;;;;7.63;5.53;;;;;;;10.91;51.25;100593.41;5102110;28;20197;-62
2024/01/24 11:08:01;;;;;;;6.00;4.77;;;;;;;10.77;51.43;100607.38;5107150;28;20214;-61
2024/01/24 11:10:33;;;;;;;5.23;4.83;;;;;;;10.93;51.71;100607.34;5106495;28;20334;-60
2024/01/24 11:13:01;;;;;;;4.90;4.50;;;;;;;11.10;51.00;100595.66;5086864;28;20262;-62
2024/01/24 11:15:30;;;;;;;9.00;6.37;;;;;;;11.03;51.90;100598.16;5092588;28;20231;-59
2024/01/24 11:18:19;;;;;;;8.57;7.77;;;;;;;11.02;50.98;100595.69;5093182;28;20571;-63
2024/01/24 11:20:46;;;;;;;5.87;5.47;;;;;;;11.16;50.37;100592.31;5106328;28;20723;-62
2024/01/24 11:23:38;;;;;;;4.93;4.47;;;;;;;11.13;50.78;100590.00;5113277;28;20255;-60
2024/01/24 11:26:05;;;;;;;4.57;4.17;;;;;;;11.08;50.25;100589.69;5113486;28;20260;-62
2024/01/24 11:28:32;;;;;;;6.93;4.53;;;;;;;10.92;51.06;100587.09;5113689;28;20731;-62
2024/01/24 11:31:00;;;;;;;4.93;4.53;;;;;;;10.83;51.02;100580.16;5113371;28;20214;-62